KMRN/MRN METAR and TAF weather

Enter ICAO airport designator
Station Type Date Time Source
KMRN METAR 2024/06/15 23:05 UTC NOAA

KMRN 152305Z AUTO 00000KT 10SM SCT070 SCT080 31/20 A3004 RMK AO2 T03110197


Station Type Date Time Source
KMRN Decoded METAR 2024/06/15 23:05 UTC NOAA

Morganton, Morganton-Lenoir Airport, NC, United States (KMRN) 35-49-17N 081-36-39W
Jun 15, 2024 - 07:05 PM EDT / 2024.06.15 2305 UTC
Wind: Calm:0
Visibility: 10 mile(s):0
Sky conditions: partly cloudy
Temperature: 88.0 F (31.1 C)
Dew Point: 67.5 F (19.7 C)
Relative Humidity: 50%
Pressure (altimeter): 30.04 in. Hg (1017 hPa)
ob: KMRN 152305Z AUTO 00000KT 10SM SCT070 SCT080 31/20 A3004 RMK AO2 T03110197
cycle: 23

Station Type Date Time Source
KMRN TAF UTC NOAA

Error!

Example: see airport list